Time;durP1;ratioP1;P1;durP2;ratioP2;P2;SDS_P1;SDS_P2;PMS_P1;PMS_P2;Temp;Humidity;BMP_temperature;BMP_pressure;BME280_temperature;BME280_humidity;BME280_pressure;Samples;Min_cycle;Max_cycle;Signal;HPM_P1;HPM_P2
2021/07/06 00:00:49;;;;;;;7.20;4.40;;;;;;;26.87;50.45;100157.07;128392;1085;64140;-84
2021/07/06 00:03:16;;;;;;;6.00;4.30;;;;;;;26.86;50.31;100150.82;128394;1086;64141;-83
2021/07/06 00:06:16;;;;;;;6.10;4.37;;;;;;;26.87;50.54;100155.23;128363;1087;64138;-84
2021/07/06 00:09:05;;;;;;;6.33;4.07;;;;;;;26.86;50.60;100156.23;128395;1087;64278;-85
2021/07/06 00:14:45;;;;;;;5.60;4.00;;;;;;;26.85;50.55;100149.11;127755;1090;64440;-84
2021/07/06 00:17:35;;;;;;;6.33;4.50;;;;;;;26.85;50.51;100143.70;127702;1090;64412;-84
2021/07/06 00:20:19;;;;;;;5.50;4.03;;;;;;;26.86;50.54;100131.03;127756;1089;64215;-84
2021/07/06 00:22:55;;;;;;;6.13;4.33;;;;;;;26.85;50.70;100132.03;127678;1090;64220;-84
2021/07/06 00:25:38;;;;;;;6.20;4.40;;;;;;;26.85;50.51;100132.87;127700;1090;64297;-83
2021/07/06 00:28:17;;;;;;;5.50;4.30;;;;;;;26.86;50.72;100131.03;127728;1089;64106;-83
2021/07/06 00:31:20;;;;;;;5.90;4.53;;;;;;;26.86;50.65;100139.16;127759;1090;64102;-83
2021/07/06 00:34:01;;;;;;;5.63;4.10;;;;;;;26.85;50.68;100138.28;127698;1090;64422;-83
2021/07/06 00:36:39;;;;;;;5.90;4.40;;;;;;;26.85;50.46;100132.87;127743;1090;64497;-84
2021/07/06 00:39:09;;;;;;;6.65;4.20;;;;;;;26.85;50.52;100140.16;127718;1090;64138;-84
2021/07/06 00:41:37;;;;;;;6.43;4.27;;;;;;;26.85;50.56;100135.58;127714;1089;63962;-84
2021/07/06 00:44:32;;;;;;;6.03;4.33;;;;;;;26.85;50.70;100135.58;127703;1090;64314;-84
2021/07/06 00:47:19;;;;;;;6.25;4.45;;;;;;;26.85;50.56;100135.58;127863;1087;64135;-84
2021/07/06 00:49:46;;;;;;;8.33;4.40;;;;;;;26.85;50.66;100132.87;127909;1087;64138;-83
2021/07/06 00:52:18;;;;;;;5.77;4.30;;;;;;;26.85;50.75;100132.03;128145;1087;64295;-84
2021/07/06 00:55:08;;;;;;;6.73;4.23;;;;;;;26.84;50.51;100131.16;128355;1087;64243;-82
2021/07/06 00:57:34;;;;;;;6.87;4.83;;;;;;;26.84;50.71;100131.16;128365;1086;64141;-83
2021/07/06 01:00:21;;;;;;;6.37;4.30;;;;;;;26.84;50.77;100128.45;128359;1087;64285;-84
2021/07/06 01:02:53;;;;;;;6.87;4.67;;;;;;;26.84;50.71;100133.88;128377;1087;64131;-84
2021/07/06 01:05:32;;;;;;;5.43;4.13;;;;;;;26.85;50.71;100137.45;128398;1087;64690;-85
2021/07/06 01:08:23;;;;;;;5.83;4.03;;;;;;;26.84;50.73;100133.03;128348;1087;64153;-84
2021/07/06 01:10:52;;;;;;;5.73;4.20;;;;;;;26.84;50.65;100138.45;128384;1087;64276;-84
2021/07/06 01:13:28;;;;;;;5.83;4.50;;;;;;;26.83;50.56;100139.45;128384;1087;64186;-83
2021/07/06 01:16:03;;;;;;;6.20;4.50;;;;;;;26.83;50.76;100144.88;128389;1086;64140;-84
2021/07/06 01:18:29;;;;;;;6.10;4.30;;;;;;;26.83;50.59;100139.45;128364;1087;64131;-84
2021/07/06 01:21:43;;;;;;;6.30;4.27;;;;;;;26.84;50.58;100149.28;128388;1087;64179;-84
2021/07/06 01:24:09;;;;;;;5.80;4.10;;;;;;;26.83;50.76;100158.41;128408;1086;64137;-84
2021/07/06 01:26:36;;;;;;;6.57;4.60;;;;;;;26.82;50.72;100154.87;128359;1087;64208;-84
2021/07/06 01:29:15;;;;;;;5.53;4.43;;;;;;;26.83;50.79;100150.29;128373;1085;64214;-85
2021/07/06 01:31:50;;;;;;;6.77;4.33;;;;;;;26.83;50.84;100150.29;128017;1087;64140;-85
2021/07/06 01:34:39;;;;;;;6.77;4.47;;;;;;;26.82;50.81;100149.45;128405;1086;64135;-84
2021/07/06 01:37:28;;;;;;;5.97;4.23;;;;;;;26.82;50.68;100144.03;128356;1087;64179;-83
2021/07/06 01:39:59;;;;;;;6.83;4.30;;;;;;;26.82;50.83;100149.45;128372;1086;63999;-84
2021/07/06 01:42:45;;;;;;;6.83;4.17;;;;;;;26.82;50.86;100154.87;128367;1087;64254;-84
2021/07/06 01:45:35;;;;;;;6.13;4.47;;;;;;;26.82;50.74;100149.45;128414;1087;64144;-84
2021/07/06 01:48:10;;;;;;;6.33;4.10;;;;;;;26.82;50.83;100151.30;128381;1087;64172;-84
2021/07/06 01:50:59;;;;;;;6.63;4.27;;;;;;;26.82;50.88;100157.58;128368;1087;64144;-84
2021/07/06 01:53:38;;;;;;;;;;;;;;;;;;;;;
2021/07/06 01:56:24;;;;;;;;;;;;;;;26.79;50.67;100157.91;128414;1087;64127;-83
2021/07/06 01:58:51;;;;;;;6.70;4.00;;;;;;;26.79;50.76;100163.33;128398;1087;64218;-83
2021/07/06 02:01:20;;;;;;;7.17;4.30;;;;;;;26.79;50.74;100168.74;128354;1087;64284;-83
2021/07/06 02:04:18;;;;;;;6.00;4.00;;;;;;;26.79;50.78;100166.03;128342;1087;64103;-83
2021/07/06 02:06:45;;;;;;;6.98;4.70;;;;;;;26.78;50.63;100172.45;128385;1087;64102;-83
2021/07/06 02:09:14;;;;;;;6.23;4.50;;;;;;;26.79;50.90;100170.58;128374;1087;64138;-83
2021/07/06 02:12:10;;;;;;;6.50;4.37;;;;;;;26.80;50.87;100169.58;128401;1086;64137;-84
2021/07/06 02:14:42;;;;;;;5.87;4.23;;;;;;;26.79;50.78;100174.16;128390;1086;64160;-84
2021/07/06 02:17:22;;;;;;;6.60;4.27;;;;;;;26.80;50.63;100169.58;128403;1087;64144;-83
2021/07/06 02:19:58;;;;;;;6.07;4.40;;;;;;;26.80;50.75;100169.58;128387;1085;64029;-83
2021/07/06 02:22:27;;;;;;;6.47;4.20;;;;;;;26.79;50.70;100163.33;128368;1085;64211;-84
2021/07/06 02:25:27;;;;;;;5.80;4.23;;;;;;;26.80;50.75;100174.99;128367;1087;65338;-84
2021/07/06 02:28:13;;;;;;;6.03;4.13;;;;;;;26.80;50.94;100172.28;128373;1086;64124;-84
2021/07/06 02:30:39;;;;;;;5.43;4.23;;;;;;;26.79;50.67;100171.45;128365;1087;64138;-84
2021/07/06 02:33:16;;;;;;;5.57;4.30;;;;;;;26.80;50.85;100169.58;128383;1085;64636;-85
2021/07/06 02:35:43;;;;;;;6.30;4.33;;;;;;;26.80;50.52;100172.28;128002;1087;64936;-83
2021/07/06 02:38:23;;;;;;;5.83;4.20;;;;;;;26.80;50.70;100175.83;128075;1086;64220;-84
2021/07/06 02:41:09;;;;;;;5.70;4.10;;;;;;;26.79;50.79;100166.03;128013;1087;64285;-83
2021/07/06 02:43:51;;;;;;;5.50;3.90;;;;;;;26.80;50.79;100172.28;128385;1087;64170;-84
2021/07/06 02:46:29;;;;;;;6.40;4.30;;;;;;;26.80;50.84;100172.28;128373;1087;64282;-84
2021/07/06 02:49:17;;;;;;;;;;;;;;;;;;;;;
2021/07/06 02:52:16;;;;;;;5.53;3.87;;;;;;;26.79;50.74;100171.45;128318;1085;63629;-84
2021/07/06 02:54:59;;;;;;;6.13;4.30;;;;;;;26.79;50.65;100174.16;128416;1087;64144;-83
2021/07/06 02:57:39;;;;;;;6.37;3.97;;;;;;;26.80;50.70;100172.28;128357;1087;64157;-84
2021/07/06 03:00:32;;;;;;;4.93;3.87;;;;;;;26.79;50.79;100181.41;128423;1085;64288;-84
2021/07/06 03:03:02;;;;;;;6.50;4.20;;;;;;;26.79;50.59;100179.58;128398;1086;63948;-84
2021/07/06 03:05:38;;;;;;;6.00;4.40;;;;;;;26.79;50.70;100179.58;128407;1086;64262;-85
2021/07/06 03:08:15;;;;;;;;;;;;;;;;;;;;;
2021/07/06 03:10:56;;;;;;;7.10;4.13;;;;;;;26.79;50.76;100174.16;128380;1085;64137;-83
2021/07/06 03:13:57;;;;;;;;;;;;;;;;;;;;;
2021/07/06 03:16:38;;;;;;;;;;;;;;;;;;;;;
2021/07/06 03:19:19;;;;;;;5.97;4.10;;;;;;;26.80;50.88;100177.70;128334;1087;64770;-83
2021/07/06 03:21:58;;;;;;;5.77;4.53;;;;;;;26.79;50.80;100176.86;128404;1085;64080;-84
2021/07/06 03:24:42;;;;;;;5.60;3.98;;;;;;;26.80;50.49;100180.41;128387;1086;64207;-83
2021/07/06 03:27:17;;;;;;;5.90;4.20;;;;;;;26.80;51.08;100181.25;128380;1087;64099;-83
2021/07/06 03:30:07;;;;;;;5.20;4.00;;;;;;;26.80;50.93;100189.37;128381;1087;64472;-83
2021/07/06 03:32:44;;;;;;;6.07;3.87;;;;;;;26.80;50.79;100185.83;128392;1087;64144;-84
2021/07/06 03:35:32;;;;;;;4.95;3.60;;;;;;;26.80;50.78;100183.95;128389;1086;64207;-83
2021/07/06 03:38:21;;;;;;;5.37;3.77;;;;;;;26.80;50.82;100188.53;128366;1087;64240;-84
2021/07/06 03:40:58;;;;;;;5.43;4.10;;;;;;;26.79;50.74;100182.28;128381;1087;64371;-84
2021/07/06 03:43:27;;;;;;;5.53;4.10;;;;;;;26.80;50.95;100191.23;128394;1085;64214;-85
2021/07/06 03:46:22;;;;;;;5.80;4.13;;;;;;;26.78;50.64;100180.58;128372;1087;64013;-84
2021/07/06 03:49:09;;;;;;;6.50;4.17;;;;;;;26.78;50.60;100185.13;128376;1087;64147;-85
2021/07/06 03:51:48;;;;;;;5.93;4.50;;;;;;;26.78;50.57;100179.71;128381;1085;64432;-83
2021/07/06 03:54:20;;;;;;;7.03;4.57;;;;;;;26.76;50.61;100178.03;128369;1087;64182;-83
2021/07/06 03:56:50;;;;;;;5.87;4.00;;;;;;;26.76;50.45;100183.45;128369;1087;64209;-85
2021/07/06 03:59:35;;;;;;;;;;;;;;;;;;;;;
2021/07/06 04:02:25;;;;;;;6.80;4.13;;;;;;;26.76;50.44;100193.41;128402;1087;64144;-84
2021/07/06 04:05:17;;;;;;;6.13;4.20;;;;;;;26.74;50.29;100195.45;127934;1090;64337;-84
2021/07/06 04:08:12;;;;;;;6.10;4.07;;;;;;;26.74;50.25;100184.63;127872;1090;64248;-84
2021/07/06 04:10:44;;;;;;;6.50;4.23;;;;;;;26.74;50.05;100195.45;127881;1090;64352;-84
2021/07/06 04:13:47;;;;;;;6.47;4.10;;;;;;;26.73;49.98;100193.75;127899;1089;64166;-84
2021/07/06 04:16:15;;;;;;;6.30;3.97;;;;;;;26.73;49.92;100194.58;127919;1089;64144;-85
2021/07/06 04:18:53;;;;;;;5.20;4.20;;;;;;;26.74;49.87;100198.16;127905;1090;61709;-84
2021/07/06 04:21:38;;;;;;;5.67;3.93;;;;;;;26.73;50.01;100200.00;127904;1089;64278;-84
2021/07/06 04:24:07;;;;;;;7.83;4.40;;;;;;;26.73;49.77;100202.70;127888;1090;64130;-85
2021/07/06 04:26:57;;;;;;;8.33;4.27;;;;;;;26.73;49.90;100210.83;127918;1090;64114;-84
2021/07/06 04:29:47;;;;;;;6.70;4.60;;;;;;;26.75;49.53;100210.66;127898;1090;64179;-84
2021/07/06 04:32:35;;;;;;;7.87;4.77;;;;;;;26.74;49.59;100217.11;127898;1090;64137;-83
2021/07/06 04:35:13;;;;;;;7.80;4.80;;;;;;;26.75;49.80;100213.37;127878;1088;64137;-84
2021/07/06 04:37:56;;;;;;;7.50;5.03;;;;;;;26.74;49.87;100206.28;127935;1090;64281;-84
2021/07/06 04:40:28;;;;;;;8.13;4.60;;;;;;;26.75;49.52;100219.66;127923;1090;64144;-84
2021/07/06 04:43:13;;;;;;;8.30;5.17;;;;;;;26.76;49.64;100223.20;128177;1086;64144;-84
2021/07/06 04:45:39;;;;;;;7.33;4.90;;;;;;;26.77;49.55;100219.48;128005;1087;64131;-84
2021/07/06 04:48:26;;;;;;;7.77;4.67;;;;;;;26.78;49.57;100226.61;128372;1085;64670;-84
2021/07/06 04:51:02;;;;;;;7.00;4.70;;;;;;;26.78;49.36;100223.90;128379;1086;63958;-84
2021/07/06 04:53:53;;;;;;;6.77;4.80;;;;;;;26.80;49.41;100227.28;128346;1087;64137;-84
2021/07/06 04:56:28;;;;;;;6.43;4.90;;;;;;;26.81;49.19;100234.40;128366;1086;64160;-83
2021/07/06 04:58:58;;;;;;;7.87;4.80;;;;;;;26.83;49.39;100228.81;128305;1087;64304;-84
2021/07/06 05:01:24;;;;;;;7.00;5.13;;;;;;;26.83;49.53;100231.52;128219;1085;63958;-83
2021/07/06 05:03:51;;;;;;;8.50;4.73;;;;;;;26.85;49.38;100229.52;128234;1087;64161;-83
2021/07/06 05:06:27;;;;;;;6.80;4.80;;;;;;;26.85;49.11;100227.64;128340;1087;64214;-84
2021/07/06 05:08:54;;;;;;;9.70;5.00;;;;;;;26.87;49.16;100230.19;128281;1086;64965;-84
2021/07/06 05:11:28;;;;;;;8.90;4.93;;;;;;;26.88;49.11;100235.44;128377;1086;64099;-84
2021/07/06 05:14:18;;;;;;;7.67;4.80;;;;;;;26.89;49.16;100239.85;128344;1086;64144;-83
2021/07/06 05:17:02;;;;;;;6.80;4.50;;;;;;;26.90;48.91;100246.14;128390;1085;64179;-85
2021/07/06 05:19:38;;;;;;;6.13;4.67;;;;;;;26.92;48.93;100257.64;128306;1086;64058;-84
2021/07/06 05:22:11;;;;;;;8.35;5.10;;;;;;;26.92;48.67;100246.80;128230;1086;64377;-84
2021/07/06 05:24:43;;;;;;;8.80;4.55;;;;;;;26.93;48.58;100253.92;128330;1085;64140;-84
2021/07/06 05:27:30;;;;;;;7.33;4.47;;;;;;;26.95;48.47;100259.18;128327;1086;64352;-84
2021/07/06 05:30:26;;;;;;;7.10;4.53;;;;;;;26.95;48.17;100261.89;128363;1087;64173;-85
2021/07/06 05:33:01;;;;;;;6.70;4.33;;;;;;;26.95;48.52;100251.05;128240;1087;64137;-83
2021/07/06 05:35:35;;;;;;;7.70;4.37;;;;;;;26.95;48.51;100268.14;128385;1087;64212;-83
2021/07/06 05:38:02;;;;;;;7.77;4.50;;;;;;;26.95;48.27;100273.55;128362;1087;64131;-83
2021/07/06 05:41:06;;;;;;;;;;;;;;;;;;;;;
2021/07/06 05:43:54;;;;;;;7.10;4.50;;;;;;;26.95;48.25;100272.72;128374;1086;64176;-84
2021/07/06 05:46:43;;;;;;;8.60;4.50;;;;;;;26.95;48.32;100272.72;128342;1087;64259;-84
2021/07/06 05:49:19;;;;;;;;;;;;;;;;;;;;;
2021/07/06 05:51:56;;;;;;;7.37;4.53;;;;;;;26.92;48.36;100285.59;128052;1087;64099;-84
2021/07/06 05:54:25;;;;;;;8.20;4.80;;;;;;;26.93;48.45;100281.02;128363;1086;64221;-84
2021/07/06 05:56:52;;;;;;;7.73;4.70;;;;;;;26.92;48.52;100288.30;128285;1087;64144;-84
2021/07/06 05:59:19;;;;;;;6.73;4.43;;;;;;;26.93;48.38;100281.02;128226;1086;64364;-83
2021/07/06 06:01:45;;;;;;;6.23;4.20;;;;;;;26.91;48.44;100289.30;128336;1086;64134;-83
2021/07/06 06:04:13;;;;;;;11.17;4.57;;;;;;;26.92;48.42;100288.30;128326;1086;61994;-83
2021/07/06 06:06:46;;;;;;;8.07;4.80;;;;;;;26.91;48.44;100291.14;128347;1087;64635;-82
2021/07/06 06:09:12;;;;;;;8.20;4.10;;;;;;;26.90;48.38;100298.43;128268;1087;64105;-83
2021/07/06 06:12:05;;;;;;;7.25;4.40;;;;;;;26.90;48.38;100289.47;128230;1087;64106;-83
2021/07/06 06:14:31;;;;;;;7.30;4.47;;;;;;;26.91;48.39;100300.14;127786;1088;64009;-82
2021/07/06 06:17:01;;;;;;;8.17;4.67;;;;;;;26.93;48.35;100298.10;127738;1090;64179;-83
2021/07/06 06:19:27;;;;;;;6.73;4.23;;;;;;;26.95;48.47;100294.39;127823;1090;64163;-83
2021/07/06 06:22:24;;;;;;;6.75;4.15;;;;;;;26.96;48.36;100296.93;127604;1090;64035;-83
2021/07/06 06:24:51;;;;;;;5.93;3.73;;;;;;;26.96;48.32;100298.80;127507;1089;64138;-84
2021/07/06 06:27:18;;;;;;;7.90;3.90;;;;;;;26.96;48.47;100299.64;127506;1090;64291;-83
2021/07/06 06:29:53;;;;;;;6.23;4.10;;;;;;;26.96;48.36;100296.09;127550;1090;64330;-84
2021/07/06 06:32:20;;;;;;;5.67;3.73;;;;;;;26.97;48.47;100301.34;127525;1090;64326;-81
2021/07/06 06:34:46;;;;;;;8.70;4.33;;;;;;;26.99;48.43;100298.47;127561;1090;64197;-81
2021/07/06 06:37:12;;;;;;;6.83;4.00;;;;;;;26.99;48.56;100306.59;127528;1090;64240;-81
2021/07/06 06:39:51;;;;;;;6.40;4.10;;;;;;;26.99;48.63;100299.34;127552;1090;64192;-81
2021/07/06 06:42:17;;;;;;;8.00;4.30;;;;;;;26.99;48.34;100302.05;127597;1089;64146;-83
2021/07/06 06:44:44;;;;;;;9.60;4.50;;;;;;;27.00;48.45;100308.30;127527;1090;64138;-82
2021/07/06 06:47:19;;;;;;;8.63;4.77;;;;;;;26.98;48.29;100307.59;127575;1090;62320;-83
2021/07/06 06:50:02;;;;;;;7.00;4.10;;;;;;;26.99;48.44;100306.59;127627;1090;64211;-83
2021/07/06 06:52:42;;;;;;;6.13;4.00;;;;;;;26.99;48.50;100310.17;127803;1087;64278;-83
2021/07/06 06:55:09;;;;;;;6.40;4.20;;;;;;;27.00;48.18;100308.30;127839;1090;64156;-84
2021/07/06 06:58:02;;;;;;;;;;;;;;;;;;;;;
2021/07/06 07:00:35;;;;;;;6.50;4.17;;;;;;;27.00;48.42;100303.72;128162;1087;64411;-84
2021/07/06 07:03:47;;;;;;;6.53;4.00;;;;;;;27.01;48.44;100310.84;128308;1087;64184;-84
2021/07/06 07:06:09;;;;;;;6.87;3.67;;;;;;;27.02;48.43;100303.55;128269;1087;64147;-84
2021/07/06 07:08:35;;;;;;;6.53;4.27;;;;;;;27.02;48.57;100312.55;128323;1085;64131;-81
2021/07/06 07:11:12;;;;;;;7.13;4.20;;;;;;;27.01;48.39;100313.55;128195;1085;64735;-82
2021/07/06 07:13:39;;;;;;;6.93;4.03;;;;;;;27.02;48.50;100309.84;128382;1086;66096;-83
2021/07/06 07:16:06;;;;;;;7.07;4.50;;;;;;;27.02;48.28;100307.13;128299;1085;64162;-83
2021/07/06 07:18:39;;;;;;;7.27;4.30;;;;;;;27.02;48.32;100307.13;128219;1085;64137;-82
2021/07/06 07:21:05;;;;;;;7.03;4.50;;;;;;;27.03;48.23;100308.84;128252;1086;64333;-83
2021/07/06 07:23:31;;;;;;;6.07;4.23;;;;;;;27.04;48.03;100306.97;128288;1085;64182;-83
2021/07/06 07:26:02;;;;;;;6.67;4.33;;;;;;;27.04;48.11;100307.80;128395;1086;64183;-82
2021/07/06 07:28:28;;;;;;;6.70;4.57;;;;;;;27.04;48.16;100313.22;128331;1087;64136;-83
2021/07/06 07:30:54;;;;;;;6.90;3.90;;;;;;;27.05;48.18;100309.52;128298;1087;64096;-82
2021/07/06 07:33:21;;;;;;;7.70;4.37;;;;;;;27.04;47.84;100302.39;128239;1087;64202;-82
2021/07/06 07:35:59;;;;;;;7.40;4.23;;;;;;;27.05;47.71;100312.22;128237;1086;64266;-82
2021/07/06 07:38:26;;;;;;;6.80;4.55;;;;;;;27.05;47.69;100308.67;128226;1085;64176;-82
2021/07/06 07:40:53;;;;;;;6.73;4.20;;;;;;;27.06;47.61;100311.22;128242;1087;64211;-83
2021/07/06 07:43:19;;;;;;;7.23;4.10;;;;;;;27.06;47.48;100313.09;128292;1087;64750;-82
2021/07/06 07:45:48;;;;;;;7.03;4.50;;;;;;;27.07;47.68;100312.92;128257;1087;64166;-82
2021/07/06 07:48:15;;;;;;;6.27;3.93;;;;;;;27.07;47.59;100304.80;128207;1085;64466;-83
2021/07/06 07:50:41;;;;;;;7.13;4.27;;;;;;;27.08;47.67;100305.63;128283;1087;64154;-82
2021/07/06 07:53:08;;;;;;;7.23;4.10;;;;;;;27.09;47.54;100300.05;128302;1085;63910;-82
2021/07/06 07:55:35;;;;;;;5.93;3.97;;;;;;;27.10;47.74;100301.75;128299;1085;64163;-82
2021/07/06 07:58:01;;;;;;;4.97;4.20;;;;;;;27.10;47.71;100301.75;128223;1085;64191;-82
2021/07/06 08:00:28;;;;;;;5.00;4.15;;;;;;;27.12;47.69;100308.88;128234;1087;64253;-83
2021/07/06 08:02:54;;;;;;;9.67;4.30;;;;;;;27.12;47.78;100304.30;128312;1087;62419;-83
2021/07/06 08:05:21;;;;;;;6.63;4.53;;;;;;;27.13;47.31;100308.71;128311;1086;64134;-83
2021/07/06 08:07:47;;;;;;;5.43;4.13;;;;;;;27.13;47.47;100308.71;128248;1086;64600;-83
2021/07/06 08:10:13;;;;;;;6.80;4.67;;;;;;;27.14;47.22;100314.97;127866;1086;64281;-83
2021/07/06 08:12:40;;;;;;;7.40;4.40;;;;;;;27.14;46.81;100309.55;127806;1085;64182;-83
2021/07/06 08:15:07;;;;;;;8.80;4.13;;;;;;;27.12;46.70;100315.13;128100;1085;64284;-82
2021/07/06 08:17:34;;;;;;;6.33;4.20;;;;;;;27.13;46.43;100308.71;128285;1087;62460;-82
2021/07/06 08:20:04;;;;;;;10.90;4.87;;;;;;;27.14;46.14;100312.26;128277;1086;63719;-83
2021/07/06 08:22:30;;;;;;;5.00;4.17;;;;;;;27.15;46.23;100319.38;128202;1085;62990;-83
2021/07/06 08:25:00;;;;;;;6.80;4.50;;;;;;;27.14;46.09;100318.55;128264;1085;64129;-83
2021/07/06 08:27:26;;;;;;;8.43;4.20;;;;;;;27.14;46.06;100313.13;128313;1087;64096;-82
2021/07/06 08:29:54;;;;;;;8.27;4.60;;;;;;;27.13;45.83;100322.26;128344;1085;64076;-83
2021/07/06 08:32:20;;;;;;;5.97;3.87;;;;;;;27.12;45.74;100312.42;128470;1086;62333;-82
2021/07/06 08:34:47;;;;;;;7.17;4.50;;;;;;;27.13;45.82;100322.26;128423;1085;64137;-83
2021/07/06 08:37:13;;;;;;;6.60;3.90;;;;;;;27.13;45.93;100326.84;128306;1086;64274;-83
2021/07/06 08:39:39;;;;;;;6.97;4.20;;;;;;;27.13;45.67;100324.97;128297;1084;64109;-83
2021/07/06 08:42:06;;;;;;;10.53;4.57;;;;;;;27.13;45.79;100316.84;128242;1087;64230;-83
2021/07/06 08:44:34;;;;;;;8.23;4.43;;;;;;;27.15;45.71;100324.80;128259;1087;65378;-83
2021/07/06 08:47:05;;;;;;;6.00;4.50;;;;;;;27.15;45.84;100324.80;127850;1087;64240;-83
2021/07/06 08:49:50;;;;;;;7.07;4.60;;;;;;;27.13;45.44;100316.84;128250;1087;64026;-83
2021/07/06 08:52:18;;;;;;;6.97;4.87;;;;;;;27.14;45.50;100321.25;127942;1085;63949;-83
2021/07/06 08:54:45;;;;;;;7.00;4.30;;;;;;;27.14;45.45;100323.97;128314;1086;64150;-82
2021/07/06 08:57:11;;;;;;;7.20;4.47;;;;;;;27.15;45.45;100330.22;128387;1085;64294;-82
2021/07/06 08:59:38;;;;;;;6.13;4.60;;;;;;;27.17;45.52;100320.08;128312;1085;62147;-82
2021/07/06 09:02:06;;;;;;;6.00;4.13;;;;;;;27.19;45.65;100320.76;128299;1086;64080;-83
2021/07/06 09:04:55;;;;;;;7.77;4.47;;;;;;;27.19;45.64;100327.05;129337;1087;62153;-82
2021/07/06 09:07:22;;;;;;;6.63;4.20;;;;;;;27.22;45.56;100328.55;128190;1087;64288;-82
2021/07/06 09:09:50;;;;;;;7.67;4.23;;;;;;;27.22;45.74;100324.00;128251;1087;64253;-83
2021/07/06 09:12:20;;;;;;;4.88;3.88;;;;;;;27.24;45.54;100318.41;128241;1085;64204;-82
2021/07/06 09:14:49;;;;;;;8.03;4.43;;;;;;;27.24;45.53;100326.55;128258;1085;64105;-83
2021/07/06 09:17:23;;;;;;;5.85;4.00;;;;;;;27.25;45.93;100328.25;128204;1087;64285;-82
2021/07/06 09:19:56;;;;;;;6.03;4.03;;;;;;;27.24;45.79;100324.67;128227;1087;64083;-83
2021/07/06 09:22:31;;;;;;;6.67;4.27;;;;;;;27.24;45.62;100319.25;128281;1085;63971;-82
2021/07/06 09:25:10;;;;;;;6.50;4.40;;;;;;;27.26;45.64;100324.53;128308;1086;64258;-81
2021/07/06 09:27:40;;;;;;;6.67;4.77;;;;;;;27.26;45.57;100338.09;128235;1084;64038;-83
2021/07/06 09:30:18;;;;;;;5.47;3.93;;;;;;;27.26;45.59;100328.08;129461;1086;61917;-82
2021/07/06 09:32:56;;;;;;;4.93;4.00;;;;;;;27.28;45.63;100329.79;129259;1086;64260;-81
2021/07/06 09:35:27;;;;;;;5.13;3.70;;;;;;;27.28;45.78;100338.75;128260;1086;64714;-81
2021/07/06 09:37:54;;;;;;;5.60;4.30;;;;;;;27.29;46.02;100335.04;129476;1086;62919;-82
2021/07/06 09:40:34;;;;;;;6.30;4.33;;;;;;;27.31;45.82;100329.45;128561;1085;62037;-81
2021/07/06 09:43:36;;;;;;;6.30;4.47;;;;;;;27.31;45.88;100338.42;128255;1085;61711;-84
2021/07/06 09:46:13;;;;;;;7.30;5.00;;;;;;;27.31;46.02;100338.42;128220;1086;62280;-83
2021/07/06 09:48:51;;;;;;;6.85;5.20;;;;;;;27.32;45.87;100342.00;127921;1087;64109;-83
2021/07/06 09:51:42;;;;;;;7.93;5.67;;;;;;;27.32;45.86;100345.55;127959;1086;64355;-83
2021/07/06 09:54:08;;;;;;;8.90;6.60;;;;;;;27.32;45.97;100336.58;127994;1087;64617;-83
2021/07/06 09:56:41;;;;;;;9.47;6.27;;;;;;;27.32;45.74;100350.13;127907;1087;63917;-82
2021/07/06 09:59:32;;;;;;;8.77;6.17;;;;;;;27.31;45.98;100351.97;127988;1086;64229;-83
2021/07/06 10:02:03;;;;;;;9.67;7.03;;;;;;;27.31;45.95;100348.42;128289;1087;64142;-82
2021/07/06 10:04:54;;;;;;;8.27;6.67;;;;;;;27.31;45.76;100353.84;128013;1087;64269;-83
2021/07/06 10:07:29;;;;;;;10.23;6.80;;;;;;;27.30;45.88;100357.56;127878;1086;64123;-81
2021/07/06 10:10:12;;;;;;;9.43;7.83;;;;;;;27.29;45.85;100348.59;127884;1087;64256;-83
2021/07/06 10:12:42;;;;;;;9.63;7.17;;;;;;;27.29;46.13;100345.02;128186;1085;64326;-83
2021/07/06 10:15:10;;;;;;;8.60;7.00;;;;;;;27.28;46.12;100357.73;127955;1086;62397;-82
2021/07/06 10:17:46;;;;;;;9.43;7.53;;;;;;;27.28;46.11;100359.59;128075;1087;64096;-83
2021/07/06 10:20:35;;;;;;;;;;;;;;;;;;;;;
2021/07/06 10:23:01;;;;;;;9.85;8.05;;;;;;;27.27;46.09;100364.15;128265;1087;64137;-83
2021/07/06 10:25:36;;;;;;;10.17;8.33;;;;;;;27.27;45.92;100358.73;128313;1087;64128;-83
2021/07/06 10:28:09;;;;;;;9.77;7.93;;;;;;;27.26;46.25;100366.02;128254;1087;64066;-81
2021/07/06 10:30:46;;;;;;;10.70;8.17;;;;;;;27.26;46.37;100368.73;128202;1087;64105;-82
2021/07/06 10:33:16;;;;;;;9.73;8.13;;;;;;;27.25;46.33;100369.73;128206;1086;64154;-82
2021/07/06 10:35:47;;;;;;;8.80;7.55;;;;;;;27.26;46.23;100365.19;128201;1087;64276;-82
2021/07/06 10:38:32;;;;;;;10.10;7.97;;;;;;;27.27;46.30;100358.73;128254;1087;62597;-82
2021/07/06 10:41:05;;;;;;;11.87;8.10;;;;;;;27.27;46.14;100356.02;128206;1085;64174;-82
2021/07/06 10:43:41;;;;;;;9.63;7.20;;;;;;;27.26;46.30;100368.73;128291;1085;64279;-82
2021/07/06 10:46:43;;;;;;;9.10;7.53;;;;;;;27.25;46.35;100356.19;128314;1086;63981;-82
2021/07/06 10:49:39;;;;;;;8.17;6.90;;;;;;;27.26;46.09;100352.47;128229;1086;63958;-82
2021/07/06 10:52:35;;;;;;;9.43;6.80;;;;;;;27.25;46.38;100353.47;128181;1087;64137;-81
2021/07/06 10:55:39;;;;;;;8.53;6.60;;;;;;;27.26;45.96;100352.47;128626;1084;64234;-81
2021/07/06 10:58:05;;;;;;;9.60;6.33;;;;;;;27.26;45.98;100357.05;128263;1087;64002;-82
2021/07/06 11:00:42;;;;;;;11.43;6.23;;;;;;;27.28;45.87;100356.89;128213;1087;64135;-81
2021/07/06 11:03:16;;;;;;;8.23;6.20;;;;;;;27.28;46.04;100360.44;128633;1087;64234;-81
2021/07/06 11:05:42;;;;;;;8.60;7.07;;;;;;;27.30;46.18;100349.43;129494;1087;62081;-81
2021/07/06 11:08:29;;;;;;;8.23;6.70;;;;;;;27.30;46.13;100353.01;129492;1087;61860;-81
2021/07/06 11:10:56;;;;;;;7.70;6.30;;;;;;;27.31;46.31;100348.42;129475;1086;61950;-82
2021/07/06 11:13:29;;;;;;;10.47;7.00;;;;;;;27.32;46.09;100345.55;129298;1087;62356;-81
2021/07/06 11:15:55;;;;;;;9.33;6.47;;;;;;;27.33;45.99;100344.55;128180;1085;64211;-81
2021/07/06 11:18:33;;;;;;;8.13;6.30;;;;;;;27.35;45.95;100349.80;128234;1085;64148;-84
2021/07/06 11:20:59;;;;;;;8.33;6.33;;;;;;;27.34;46.01;100340.83;128843;1087;61801;-81
2021/07/06 11:23:33;;;;;;;7.40;6.33;;;;;;;27.36;45.92;100348.80;128292;1087;64105;-83
2021/07/06 11:26:20;;;;;;;;;;;;;;;;;;;;;
2021/07/06 11:29:32;;;;;;;;;;;;;;;;;;;;;
2021/07/06 11:32:25;;;;;;;7.37;6.07;;;;;;;27.33;45.95;100338.28;128419;1087;64137;-83
2021/07/06 11:35:02;;;;;;;8.47;6.53;;;;;;;27.32;46.07;100329.29;128327;1087;64173;-84
2021/07/06 11:37:36;;;;;;;8.83;6.00;;;;;;;27.32;45.94;100333.88;128368;1087;64131;-83
2021/07/06 11:40:23;;;;;;;8.30;6.43;;;;;;;27.31;45.91;100333.00;128400;1087;64138;-83
2021/07/06 11:42:52;;;;;;;8.13;6.10;;;;;;;27.30;45.87;100335.88;128370;1086;64147;-84
2021/07/06 11:45:21;;;;;;;7.53;6.17;;;;;;;27.29;45.97;100331.46;128344;1087;64166;-83
2021/07/06 11:48:11;;;;;;;9.90;6.47;;;;;;;27.29;46.07;100336.88;128217;1085;64269;-83
2021/07/06 11:50:39;;;;;;;7.50;6.23;;;;;;;27.28;46.22;100333.34;128186;1085;64165;-83
2021/07/06 11:53:10;;;;;;;8.27;6.27;;;;;;;27.28;45.86;100327.92;128192;1087;64246;-83
2021/07/06 11:55:40;;;;;;;9.27;5.63;;;;;;;27.27;46.01;100326.21;128314;1085;64307;-83
2021/07/06 11:58:11;;;;;;;8.30;6.23;;;;;;;27.28;45.96;100332.50;128338;1085;64141;-84
2021/07/06 12:00:39;;;;;;;7.40;5.93;;;;;;;27.26;45.82;100325.38;128350;1086;62477;-83
2021/07/06 12:03:42;;;;;;;7.83;6.07;;;;;;;27.25;45.91;100323.67;128368;1087;64143;-83
2021/07/06 12:06:28;;;;;;;8.20;6.07;;;;;;;27.25;45.83;100318.25;128393;1087;64138;-84
2021/07/06 12:09:05;;;;;;;8.77;5.63;;;;;;;27.24;46.04;100319.25;128404;1086;64151;-85
2021/07/06 12:11:36;;;;;;;;;;;;;;;27.24;45.85;100316.54;128435;1087;64144;-84
2021/07/06 12:14:10;;;;;;;8.13;5.60;;;;;;;27.23;46.08;100320.29;128386;1085;64217;-83
2021/07/06 12:16:39;;;;;;;7.50;5.60;;;;;;;27.23;46.04;100314.00;128367;1087;64102;-83
2021/07/06 12:19:27;;;;;;;7.13;5.83;;;;;;;27.23;46.03;100314.00;128399;1087;64231;-84
2021/07/06 12:22:02;;;;;;;;;;;;;;;27.23;45.95;100303.16;128363;1086;64234;-83